Terminal Aerodrome Forecast
Issued by NWS

Home | Current Version | Previous Version | Text Only | Print | Product List | Glossary On
Versions: 1 2 3 4 5 6 7 8 9 10 11 12 13 14 15 16 17
109
FTUS45 KGGW 060537 AAB
TAFSDY
TAF AMD
KSDY 060537Z 0606/0706 30025G35KT 2SM -SN BLSN BKN025
     FM060900 30022G31KT 6SM BLSN BKN025
     FM061800 30014G22KT P6SM BKN035
     FM070000 31012KT P6SM BKN020=

USA.gov is the U.S. government's official web portal to all federal, state and local government web resources and services.